createdAt,value
2022-09-26T00:01:45.837Z,10.37
2022-09-26T00:04:21.213Z,11.20
2022-09-26T00:06:52.662Z,11.23
2022-09-26T00:09:28.483Z,12.13
2022-09-26T00:11:59.036Z,11.07
2022-09-26T00:14:30.176Z,11.50
2022-09-26T00:16:58.938Z,11.10
2022-09-26T00:19:27.800Z,11.20
2022-09-26T00:21:56.287Z,10.87
2022-09-26T00:24:25.452Z,10.60
2022-09-26T00:26:54.088Z,11.10
2022-09-26T00:29:24.434Z,10.50
2022-09-26T00:31:53.973Z,11.03
2022-09-26T00:34:22.689Z,9.47
2022-09-26T00:36:51.112Z,11.27
2022-09-26T00:39:19.958Z,9.50
2022-09-26T00:41:49.967Z,9.90
2022-09-26T00:44:45.087Z,9.30
2022-09-26T00:47:27.884Z,8.87
2022-09-26T00:50:00.961Z,9.47
2022-09-26T00:52:35.788Z,9.27
2022-09-26T00:55:07.551Z,8.93
2022-09-26T00:57:41.895Z,8.93
2022-09-26T01:00:15.099Z,8.87
2022-09-26T01:02:45.887Z,9.10
2022-09-26T01:05:17.431Z,9.37
2022-09-26T01:07:46.328Z,9.07
2022-09-26T01:10:16.568Z,8.43
2022-09-26T01:12:45.348Z,8.43
2022-09-26T01:15:15.803Z,8.47
2022-09-26T01:17:46.938Z,8.20
2022-09-26T01:20:26.781Z,9.03
2022-09-26T01:23:20.493Z,9.07
2022-09-26T01:26:16.000Z,9.27
2022-09-26T01:29:04.461Z,7.37
2022-09-26T01:31:43.007Z,8.23
2022-09-26T01:34:19.760Z,7.97
2022-09-26T01:37:05.593Z,7.67
2022-09-26T01:39:48.147Z,8.23
2022-09-26T01:42:28.233Z,7.37
2022-09-26T01:45:02.999Z,8.20
2022-09-26T01:47:42.702Z,8.43
2022-09-26T01:50:19.279Z,7.50
2022-09-26T01:52:54.866Z,7.60
2022-09-26T01:55:29.172Z,8.67
2022-09-26T01:58:04.921Z,8.50
2022-09-26T02:00:35.118Z,7.67
2022-09-26T02:03:13.027Z,8.13
2022-09-26T02:05:45.477Z,7.90
2022-09-26T02:08:17.643Z,7.83
2022-09-26T02:10:50.703Z,7.40
2022-09-26T02:13:23.538Z,8.63
2022-09-26T02:15:58.878Z,8.00
2022-09-26T02:18:32.905Z,8.60
2022-09-26T02:21:03.890Z,8.27
2022-09-26T02:23:32.745Z,7.47
2022-09-26T02:26:01.265Z,7.77
2022-09-26T02:28:29.748Z,8.33
2022-09-26T02:31:01.449Z,7.20
2022-09-26T02:33:32.771Z,7.77
2022-09-26T02:36:03.708Z,7.47
2022-09-26T02:38:34.865Z,8.17
2022-09-26T02:41:27.615Z,7.67
2022-09-26T02:44:13.907Z,7.10
2022-09-26T02:47:21.965Z,7.30
2022-09-26T02:50:13.163Z,7.87
2022-09-26T02:52:51.535Z,7.50
2022-09-26T02:55:39.042Z,7.07
2022-09-26T02:58:16.506Z,8.10
2022-09-26T03:00:55.974Z,7.70
2022-09-26T03:03:33.153Z,8.63
2022-09-26T03:06:06.641Z,7.07
2022-09-26T03:08:40.202Z,7.33
2022-09-26T03:11:12.303Z,8.10
2022-09-26T03:13:42.041Z,7.63
2022-09-26T03:16:12.773Z,8.43
2022-09-26T03:18:48.576Z,8.00
2022-09-26T03:21:18.783Z,7.53
2022-09-26T03:23:47.704Z,8.30
2022-09-26T03:26:20.230Z,7.90
2022-09-26T03:28:56.395Z,8.10
2022-09-26T03:31:28.425Z,7.50
2022-09-26T03:34:02.671Z,8.03
2022-09-26T03:36:33.361Z,7.53
2022-09-26T03:39:04.359Z,7.50
2022-09-26T03:41:44.497Z,7.80
2022-09-26T03:44:22.242Z,7.63
2022-09-26T03:47:05.837Z,7.03
2022-09-26T03:49:40.542Z,7.47
2022-09-26T03:52:14.086Z,8.13
2022-09-26T03:54:45.428Z,7.67
2022-09-26T03:57:14.395Z,7.87
2022-09-26T03:59:57.582Z,7.20
2022-09-26T04:02:33.515Z,7.70
2022-09-26T04:05:18.395Z,7.00
2022-09-26T04:07:48.784Z,7.30
2022-09-26T04:10:19.204Z,7.20
2022-09-26T04:12:47.691Z,7.20
2022-09-26T04:15:17.278Z,7.17
2022-09-26T04:17:45.791Z,7.47
2022-09-26T04:20:15.186Z,7.73
2022-09-26T04:22:45.869Z,6.80
2022-09-26T04:25:16.428Z,7.40
2022-09-26T04:27:45.318Z,8.00
2022-09-26T04:30:14.814Z,7.50
2022-09-26T04:32:51.169Z,6.67
2022-09-26T04:35:37.550Z,7.67
2022-09-26T04:38:08.453Z,7.83
2022-09-26T04:40:42.695Z,7.77
2022-09-26T04:43:12.782Z,7.63
2022-09-26T04:45:43.563Z,8.37
2022-09-26T04:48:13.842Z,7.90
2022-09-26T04:50:56.976Z,7.30
2022-09-26T04:53:27.099Z,7.93
2022-09-26T04:56:15.968Z,7.87
2022-09-26T04:58:45.988Z,6.53
2022-09-26T05:01:16.717Z,7.87
2022-09-26T05:04:05.727Z,6.97
2022-09-26T05:06:35.385Z,7.83
2022-09-26T05:09:06.154Z,8.17
2022-09-26T05:11:59.984Z,7.70
2022-09-26T05:14:28.662Z,7.37
2022-09-26T05:16:57.363Z,8.00
2022-09-26T05:19:27.379Z,7.63
2022-09-26T05:22:14.647Z,7.47
2022-09-26T05:25:00.905Z,7.47
2022-09-26T05:27:32.034Z,8.07
2022-09-26T05:30:01.302Z,8.03
2022-09-26T05:32:30.274Z,6.90
2022-09-26T05:34:59.330Z,7.87
2022-09-26T05:37:31.186Z,7.53
2022-09-26T05:40:17.503Z,7.90
2022-09-26T05:42:52.832Z,6.73
2022-09-26T05:45:21.587Z,6.90
2022-09-26T05:47:50.368Z,6.27
2022-09-26T05:50:22.396Z,6.83
2022-09-26T05:52:52.771Z,7.00
2022-09-26T05:55:25.716Z,7.00
2022-09-26T05:58:14.195Z,6.23
2022-09-26T06:01:07.145Z,5.23
2022-09-26T06:03:36.880Z,5.63
2022-09-26T06:06:12.353Z,5.23
2022-09-26T06:08:42.614Z,5.13
2022-09-26T06:11:40.231Z,4.77
2022-09-26T06:14:10.351Z,4.60
2022-09-26T06:16:39.778Z,4.50
2022-09-26T06:19:08.957Z,4.43
2022-09-26T06:21:40.279Z,4.13
2022-09-26T06:24:14.180Z,4.03
2022-09-26T06:26:43.850Z,4.63
2022-09-26T06:29:16.117Z,3.70
2022-09-26T06:31:45.174Z,3.97
2022-09-26T06:34:14.189Z,4.00
2022-09-26T06:36:55.227Z,4.10
2022-09-26T06:39:24.019Z,4.23
2022-09-26T06:41:53.303Z,3.87
2022-09-26T06:44:37.812Z,4.60
2022-09-26T06:47:32.955Z,4.67
2022-09-26T06:50:27.971Z,4.30
2022-09-26T06:53:10.445Z,4.53
2022-09-26T06:55:39.682Z,4.50
2022-09-26T06:58:08.315Z,4.60
2022-09-26T07:00:52.288Z,4.50
2022-09-26T07:03:46.073Z,5.47
2022-09-26T07:06:50.275Z,5.47
2022-09-26T07:09:19.005Z,4.87
2022-09-26T07:12:17.460Z,4.90
2022-09-26T07:14:50.105Z,4.50
2022-09-26T07:17:28.843Z,4.20
2022-09-26T07:20:19.681Z,4.57
2022-09-26T07:22:57.183Z,4.40
2022-09-26T07:25:25.721Z,4.40
2022-09-26T07:27:54.735Z,5.13
2022-09-26T07:30:31.093Z,3.77
2022-09-26T07:33:09.089Z,3.77
2022-09-26T07:35:49.819Z,3.77
2022-09-26T07:38:18.336Z,4.37
2022-09-26T07:40:48.529Z,4.03
2022-09-26T07:43:24.154Z,3.63
2022-09-26T07:46:21.988Z,3.70
2022-09-26T07:49:11.963Z,3.67
2022-09-26T07:52:00.715Z,3.30
2022-09-26T07:54:44.119Z,4.13
2022-09-26T07:57:21.582Z,3.47
2022-09-26T08:00:17.101Z,3.77
2022-09-26T08:02:55.648Z,2.73
2022-09-26T08:05:26.744Z,3.53
2022-09-26T08:07:57.644Z,3.10
2022-09-26T08:10:45.143Z,3.27
2022-09-26T08:13:36.677Z,3.03
2022-09-26T08:16:20.887Z,3.03
2022-09-26T08:18:50.241Z,3.37
2022-09-26T08:21:21.380Z,3.47
2022-09-26T08:23:53.670Z,3.43
2022-09-26T08:26:44.446Z,2.70
2022-09-26T08:29:35.197Z,3.13
2022-09-26T08:32:04.747Z,2.93
2022-09-26T08:34:35.655Z,3.40
2022-09-26T08:37:29.162Z,2.87
2022-09-26T08:40:16.246Z,3.23
2022-09-26T08:43:30.051Z,2.67
2022-09-26T08:46:42.755Z,3.67
2022-09-26T08:50:02.915Z,3.40
2022-09-26T08:52:38.764Z,3.00
2022-09-26T08:55:14.160Z,3.23
2022-09-26T08:57:46.122Z,2.57
2022-09-26T09:00:21.305Z,3.27
2022-09-26T09:03:27.119Z,3.17
2022-09-26T09:06:03.820Z,3.60
2022-09-26T09:08:38.919Z,3.40
2022-09-26T09:11:53.495Z,3.60
2022-09-26T09:14:36.662Z,3.83
2022-09-26T09:17:39.347Z,3.30
2022-09-26T09:20:20.950Z,3.50
2022-09-26T09:23:30.483Z,3.67
2022-09-26T09:29:39.647Z,3.70
2022-09-26T09:32:32.720Z,3.07
2022-09-26T09:35:36.333Z,3.57
2022-09-26T09:38:18.287Z,3.60
2022-09-26T09:41:09.149Z,3.50
2022-09-26T09:43:41.314Z,3.27
2022-09-26T09:46:18.137Z,3.63
2022-09-26T09:48:49.375Z,3.60
2022-09-26T09:51:36.846Z,3.27
2022-09-26T09:54:40.401Z,3.20
2022-09-26T09:57:27.855Z,2.83
2022-09-26T10:00:10.159Z,2.50
2022-09-26T10:02:55.002Z,3.10
2022-09-26T10:05:39.501Z,2.37
2022-09-26T10:08:13.417Z,3.27
2022-09-26T10:11:24.207Z,2.70
2022-09-26T10:14:04.848Z,2.83
2022-09-26T10:17:16.069Z,2.90
2022-09-26T10:20:05.349Z,2.57
2022-09-26T10:22:45.725Z,2.50
2022-09-26T10:25:27.058Z,2.50
2022-09-26T10:27:57.937Z,2.43
2022-09-26T10:30:34.429Z,2.57
2022-09-26T10:33:26.369Z,2.83
2022-09-26T10:36:12.879Z,2.63
2022-09-26T10:39:11.951Z,3.27
2022-09-26T10:41:42.320Z,2.47
2022-09-26T10:44:29.477Z,2.20
2022-09-26T10:47:14.500Z,2.47
2022-09-26T10:50:07.709Z,3.30
2022-09-26T10:53:01.598Z,2.60
2022-09-26T10:55:39.680Z,2.80
2022-09-26T10:58:13.851Z,2.77
2022-09-26T11:00:46.290Z,2.97
2022-09-26T11:03:33.875Z,2.90
2022-09-26T11:06:34.180Z,2.40
2022-09-26T11:09:20.553Z,2.33
2022-09-26T11:11:58.392Z,2.70
2022-09-26T11:14:34.524Z,3.13
2022-09-26T11:17:10.215Z,2.67
2022-09-26T11:19:54.489Z,2.67
2022-09-26T11:22:32.228Z,3.00
2022-09-26T11:25:08.471Z,2.83
2022-09-26T11:27:45.162Z,2.57
2022-09-26T11:30:21.329Z,2.80
2022-09-26T11:33:00.130Z,2.87
2022-09-26T11:35:47.036Z,3.03
2022-09-26T11:38:39.234Z,2.93
2022-09-26T11:41:39.098Z,2.90
2022-09-26T11:44:42.303Z,3.07
2022-09-26T11:47:41.329Z,2.83
2022-09-26T11:50:39.793Z,3.17
2022-09-26T11:53:33.815Z,2.30
2022-09-26T11:56:16.047Z,2.90
2022-09-26T11:58:51.997Z,3.27
2022-09-26T12:01:31.804Z,2.87
2022-09-26T12:04:28.230Z,3.30
2022-09-26T12:07:07.659Z,2.30
2022-09-26T12:09:50.997Z,2.73
2022-09-26T12:12:29.580Z,2.57
2022-09-26T12:15:12.885Z,2.97
2022-09-26T12:17:52.625Z,3.30
2022-09-26T12:20:33.418Z,3.17
2022-09-26T12:23:08.668Z,3.13
2022-09-26T12:25:56.153Z,3.33
2022-09-26T12:28:41.574Z,2.70
2022-09-26T12:31:20.897Z,2.60
2022-09-26T12:34:06.214Z,3.03
2022-09-26T12:36:48.114Z,2.50
2022-09-26T12:39:43.934Z,3.23
2022-09-26T12:42:27.864Z,2.90
2022-09-26T12:45:11.972Z,3.70
2022-09-26T12:47:57.233Z,3.93
2022-09-26T12:50:37.831Z,3.90
2022-09-26T12:53:48.590Z,3.80
2022-09-26T12:56:23.704Z,3.90
2022-09-26T12:59:14.030Z,4.23
2022-09-26T13:02:05.321Z,4.53
2022-09-26T13:04:50.917Z,4.07
2022-09-26T13:07:34.358Z,4.33
2022-09-26T13:10:16.547Z,4.13
2022-09-26T13:13:22.499Z,3.90
2022-09-26T13:16:04.289Z,3.83
2022-09-26T13:18:47.282Z,3.80
2022-09-26T13:21:21.442Z,3.40
2022-09-26T13:23:57.968Z,3.53
2022-09-26T13:26:30.956Z,4.00
2022-09-26T13:29:17.597Z,3.90
2022-09-26T13:31:55.484Z,3.60
2022-09-26T13:34:30.693Z,3.57
2022-09-26T13:37:00.758Z,3.47
2022-09-26T13:39:34.918Z,3.63
2022-09-26T13:42:10.498Z,3.73
2022-09-26T13:44:57.703Z,3.43
2022-09-26T13:47:40.074Z,3.40
2022-09-26T13:50:23.429Z,3.63
2022-09-26T13:53:06.943Z,4.10
2022-09-26T13:55:36.598Z,3.23
2022-09-26T13:58:10.550Z,3.47
2022-09-26T14:00:49.480Z,3.37
2022-09-26T14:03:51.937Z,3.90
2022-09-26T14:06:32.305Z,4.20
2022-09-26T14:09:26.690Z,4.53
2022-09-26T14:12:29.834Z,3.40
2022-09-26T14:15:17.997Z,4.30
2022-09-26T14:18:09.450Z,3.83
2022-09-26T14:20:59.335Z,4.47
2022-09-26T14:23:46.850Z,4.63
2022-09-26T14:26:21.168Z,4.40
2022-09-26T14:28:55.147Z,4.90
2022-09-26T14:31:58.513Z,4.87
2022-09-26T14:34:30.743Z,4.47
2022-09-26T14:37:04.987Z,4.80
2022-09-26T14:39:40.108Z,5.57
2022-09-26T14:42:19.114Z,4.87
2022-09-26T14:44:56.983Z,5.00
2022-09-26T14:47:28.529Z,5.57
2022-09-26T14:50:03.214Z,4.67
2022-09-26T14:52:35.848Z,5.63
2022-09-26T14:55:08.076Z,5.23
2022-09-26T14:57:39.065Z,5.60
2022-09-26T15:00:36.597Z,4.87
2022-09-26T15:03:08.926Z,4.60
2022-09-26T15:05:37.662Z,3.93
2022-09-26T15:08:23.880Z,4.53
2022-09-26T15:10:54.375Z,3.70
2022-09-26T15:13:29.948Z,2.90
2022-09-26T15:16:09.911Z,2.97
2022-09-26T15:18:41.627Z,2.37
2022-09-26T15:21:26.535Z,3.40
2022-09-26T15:23:58.576Z,3.67
2022-09-26T15:26:30.158Z,2.60
2022-09-26T15:29:00.711Z,3.20
2022-09-26T15:31:31.301Z,2.50
2022-09-26T15:34:06.014Z,2.70
2022-09-26T15:36:37.486Z,2.77
2022-09-26T15:39:37.748Z,2.50
2022-09-26T15:42:48.338Z,2.90
2022-09-26T15:45:40.285Z,2.90
2022-09-26T15:48:27.886Z,2.67
2022-09-26T15:51:01.775Z,2.90
2022-09-26T15:53:36.754Z,2.87
2022-09-26T15:56:10.563Z,3.23
2022-09-26T15:58:45.708Z,3.10
2022-09-26T16:01:17.616Z,3.47
2022-09-26T16:03:57.338Z,3.53
2022-09-26T16:06:35.004Z,3.17
2022-09-26T16:09:09.941Z,3.60
2022-09-26T16:11:50.207Z,5.37
2022-09-26T16:14:33.614Z,3.27
2022-09-26T16:17:12.852Z,2.90
2022-09-26T16:19:46.484Z,3.40
2022-09-26T16:22:40.231Z,3.33
2022-09-26T16:25:24.589Z,3.03
2022-09-26T16:28:21.047Z,2.33
2022-09-26T16:31:10.572Z,2.97
2022-09-26T16:33:40.526Z,2.73
2022-09-26T16:36:19.044Z,2.80
2022-09-26T16:38:53.306Z,2.60
2022-09-26T16:41:56.261Z,2.67
2022-09-26T16:44:28.984Z,2.43
2022-09-26T16:47:03.378Z,2.53
2022-09-26T16:49:45.918Z,2.87
2022-09-26T16:52:34.783Z,3.27
2022-09-26T16:55:07.212Z,2.97
2022-09-26T16:57:38.946Z,3.53
2022-09-26T17:00:36.014Z,3.77
2022-09-26T17:03:05.999Z,3.63
2022-09-26T17:05:35.558Z,3.10
2022-09-26T17:08:04.682Z,2.70
2022-09-26T17:10:37.725Z,2.90
2022-09-26T17:13:06.974Z,2.43
2022-09-26T17:15:37.912Z,2.83
2022-09-26T17:18:10.440Z,2.43
2022-09-26T17:20:41.146Z,2.43
2022-09-26T17:23:34.886Z,2.70
2022-09-26T17:25:59.250Z,2.90
2022-09-26T17:28:32.582Z,3.07
2022-09-26T17:31:06.574Z,3.50
2022-09-26T17:33:38.295Z,2.90
2022-09-26T17:36:11.044Z,2.77
2022-09-26T17:38:43.517Z,3.10
2022-09-26T17:41:12.672Z,2.60
2022-09-26T17:43:45.977Z,2.70
2022-09-26T17:46:16.988Z,2.90
2022-09-26T17:48:45.960Z,3.23
2022-09-26T17:51:15.121Z,3.17
2022-09-26T17:53:50.818Z,3.30
2022-09-26T17:56:20.946Z,3.50
2022-09-26T17:58:52.123Z,3.87
2022-09-26T18:01:26.512Z,3.33
2022-09-26T18:03:59.847Z,3.20
2022-09-26T18:06:33.273Z,3.57
2022-09-26T18:09:17.115Z,3.73
2022-09-26T18:11:55.620Z,3.63
2022-09-26T18:14:24.423Z,4.20
2022-09-26T18:16:54.300Z,3.37
2022-09-26T18:19:23.045Z,3.50
2022-09-26T18:21:55.139Z,3.80
2022-09-26T18:24:27.609Z,3.67
2022-09-26T18:27:03.889Z,3.87
2022-09-26T18:29:36.678Z,4.37
2022-09-26T18:32:13.283Z,4.13
2022-09-26T18:34:41.786Z,4.30
2022-09-26T18:37:10.446Z,4.80
2022-09-26T18:39:38.919Z,4.57
2022-09-26T18:42:09.958Z,5.10
2022-09-26T18:44:38.964Z,5.00
2022-09-26T18:47:15.682Z,4.83
2022-09-26T18:49:46.556Z,4.53
2022-09-26T18:52:17.638Z,5.83
2022-09-26T18:55:07.137Z,5.30
2022-09-26T18:57:52.912Z,5.27
2022-09-26T19:00:21.632Z,5.23
2022-09-26T19:02:52.179Z,5.20
2022-09-26T19:05:21.384Z,5.77
2022-09-26T19:07:50.071Z,5.93
2022-09-26T19:10:22.049Z,5.50
2022-09-26T19:12:50.593Z,5.07
2022-09-26T19:15:19.270Z,5.40
2022-09-26T19:17:50.120Z,5.37
2022-09-26T19:20:20.125Z,5.90
2022-09-26T19:22:49.351Z,5.13
2022-09-26T19:25:18.304Z,5.80
2022-09-26T19:27:50.260Z,5.67
2022-09-26T19:30:21.303Z,6.50
2022-09-26T19:32:52.444Z,5.80
2022-09-26T19:35:27.189Z,6.47
2022-09-26T19:37:56.377Z,6.17
2022-09-26T19:40:26.510Z,5.80
2022-09-26T19:42:57.504Z,6.50
2022-09-26T19:45:32.156Z,6.10
2022-09-26T19:48:01.242Z,7.30
2022-09-26T19:50:33.325Z,7.67
2022-09-26T19:53:04.590Z,7.73
2022-09-26T19:55:33.642Z,9.03
2022-09-26T19:58:08.077Z,8.57
2022-09-26T20:00:41.458Z,11.10
2022-09-26T20:03:17.886Z,11.77
2022-09-26T20:05:49.456Z,12.53
2022-09-26T20:08:20.638Z,14.37
2022-09-26T20:10:49.573Z,13.30
2022-09-26T20:13:18.244Z,15.03
2022-09-26T20:15:49.053Z,13.70
2022-09-26T20:18:22.021Z,14.60
2022-09-26T20:20:57.819Z,14.13
2022-09-26T20:23:28.583Z,14.07
2022-09-26T20:26:00.313Z,13.57
2022-09-26T20:28:29.012Z,13.13
2022-09-26T20:30:58.907Z,14.73
2022-09-26T20:33:28.281Z,13.40
2022-09-26T20:36:03.150Z,11.93
2022-09-26T20:38:38.259Z,13.07
2022-09-26T20:41:13.184Z,11.87
2022-09-26T20:43:48.215Z,11.03
2022-09-26T20:46:17.122Z,11.47
2022-09-26T20:48:48.388Z,12.20
2022-09-26T20:51:21.985Z,11.43
2022-09-26T20:53:50.563Z,10.77
2022-09-26T20:56:21.337Z,10.13
2022-09-26T20:58:50.667Z,10.53
2022-09-26T21:01:21.535Z,10.13
2022-09-26T21:03:52.943Z,9.13
2022-09-26T21:06:25.024Z,9.40
2022-09-26T21:08:53.720Z,8.77
2022-09-26T21:11:23.377Z,9.80
2022-09-26T21:13:51.951Z,9.13
2022-09-26T21:16:23.362Z,8.10
2022-09-26T21:18:54.093Z,8.17
2022-09-26T21:21:26.156Z,9.43
2022-09-26T21:24:19.513Z,9.83
2022-09-26T21:26:50.156Z,9.93
2022-09-26T21:29:19.148Z,10.20
2022-09-26T21:31:51.360Z,9.00
2022-09-26T21:34:23.779Z,8.97
2022-09-26T21:36:56.725Z,8.83
2022-09-26T21:39:26.839Z,8.77
2022-09-26T21:41:59.034Z,7.90
2022-09-26T21:44:31.375Z,9.50
2022-09-26T21:46:59.794Z,8.50
2022-09-26T21:49:28.312Z,7.83
2022-09-26T21:52:04.244Z,7.87
2022-09-26T21:54:36.623Z,7.37
2022-09-26T21:57:10.035Z,6.97
2022-09-26T21:59:40.166Z,6.33
2022-09-26T22:02:08.670Z,5.53
2022-09-26T22:04:37.046Z,5.77
2022-09-26T22:07:06.878Z,5.33
2022-09-26T22:09:35.621Z,5.07
2022-09-26T22:12:04.582Z,4.87
2022-09-26T22:14:33.648Z,4.90
2022-09-26T22:17:02.348Z,5.33
2022-09-26T22:19:33.621Z,5.47
2022-09-26T22:22:02.734Z,5.00
2022-09-26T22:24:33.333Z,5.03
2022-09-26T22:27:01.950Z,4.90
2022-09-26T22:29:30.569Z,5.80
2022-09-26T22:31:59.042Z,4.90
2022-09-26T22:34:27.441Z,6.07
2022-09-26T22:36:55.913Z,4.87
2022-09-26T22:39:24.645Z,4.90
2022-09-26T22:41:54.479Z,5.60
2022-09-26T22:44:22.997Z,4.77
2022-09-26T22:46:51.460Z,4.67
2022-09-26T22:49:19.880Z,4.07
2022-09-26T22:51:49.041Z,3.63
2022-09-26T22:54:17.629Z,4.73
2022-09-26T22:56:46.031Z,3.80
2022-09-26T22:59:16.150Z,3.30
2022-09-26T23:01:44.823Z,3.57
2022-09-26T23:04:13.369Z,3.43
2022-09-26T23:06:41.738Z,2.90
2022-09-26T23:09:10.284Z,3.83
2022-09-26T23:11:38.684Z,3.90
2022-09-26T23:14:07.214Z,3.77
2022-09-26T23:16:37.113Z,4.57
2022-09-26T23:19:05.808Z,3.47
2022-09-26T23:21:34.340Z,3.63
2022-09-26T23:24:04.384Z,3.87
2022-09-26T23:26:33.403Z,4.80
2022-09-26T23:29:01.988Z,4.50
2022-09-26T23:31:30.608Z,4.47
2022-09-26T23:34:00.406Z,4.43
2022-09-26T23:36:28.913Z,5.10
2022-09-26T23:38:59.204Z,5.53
2022-09-26T23:41:28.340Z,6.00
2022-09-26T23:43:57.527Z,5.77
2022-09-26T23:46:26.307Z,5.93
2022-09-26T23:48:55.058Z,5.90
2022-09-26T23:51:25.001Z,5.07
2022-09-26T23:53:58.759Z,4.93
2022-09-26T23:56:27.347Z,4.30
2022-09-26T23:58:57.742Z,4.43
